NCAR-RAP Real-Time Weather Data

Output produced by METARs form (19 June 2019  11:38 UTC)
found at http://weather.rap.ucar.edu/surface/
 
KAVP 191054Z 07003KT 10SM OVC080 18/17 A2986 RMK AO2 RAB0958E10 SLP106 P0000 T01830167 $
KAVP 190954Z 00000KT 10SM SCT021 SCT065 OVC095 17/17 A2987 RMK AO2 SLP108 T01720167
KAVP 190854Z 09003KT 10SM OVC100 18/16 A2987 RMK AO2 SLP106 T01780161 56008
KAVP 190754Z 09003KT 10SM FEW070 OVC100 18/16 A2987 RMK AO2 SLP108 T01780161
KAVP 190654Z 10004KT 10SM OVC100 17/16 A2988 RMK AO2 SLP112 T01720161
KAVP 190554Z 10004KT 10SM FEW110 17/16 A2989 RMK AO2 SLP115 T01720161 10206 20172 58007
KAVP 190454Z VRB03KT 10SM CLR 17/16 A2991 RMK AO2 SLP120 T01720161 402220167
KAVP 190354Z 11004KT 10SM CLR 18/17 A2991 RMK AO2 SLP123 T01780167
KAVP 190254Z 11004KT 10SM CLR 18/17 A2991 RMK AO2 SLP123 T01830172 53008
KAVP 190154Z 11003KT 10SM CLR 18/17 A2991 RMK AO2 SLP120 T01830172
KAVP 190054Z 15003KT 10SM CLR 19/18 A2989 RMK AO2 SLP116 T01890178
KAVP 182354Z 12003KT 10SM CLR 21/18 A2989 RMK AO2 SLP114 60007 T02060178 10222 20206 53000
KAVP 182254Z 11003KT 10SM CLR 22/18 A2988 RMK AO2 SLP110 T02170183
KAVP 182154Z 05006KT 10SM FEW065 22/17 A2988 RMK AO2 SLP110 T02220172
KAVP 182054Z 05006KT 10SM OVC041 22/18 A2989 RMK AO2 SLP113 60007 T02170183 57005
KAVP 181954Z 04004KT 10SM FEW027 BKN039 OVC055 22/18 A2989 RMK AO2 RAE46 SLP114 P0002 T02170178
KAVP 181854Z 04004KT 5SM RA BR SCT060 BKN075 OVC110 21/18 A2990 RMK AO2 SLP116 P0005 T02060183
KAVP 181754Z 04004KT 10SM -RA SCT039 BKN065 OVC110 21/18 A2990 RMK AO2 RAB13 SLP118 P0000 60127 T02110178 10211 20167 56019
KAVP 181654Z VRB03KT 10SM BKN060 OVC070 21/18 A2992 RMK AO2 SLP124 T02110178
KAVP 181554Z 07006KT 10SM OVC041 19/18 A2994 RMK AO2 RAE43 SLP131 P0005 T01940178
KAVP 181530Z 08004KT 4SM -RA BR FEW030 BKN036 OVC044 18/17 A2995 RMK AO2 P0005 T01830172
KAVP 181523Z 11004KT 3SM -RA BR FEW015 BKN029 OVC035 17/17 A2995 RMK AO2 P0005 T01720167
KAVP 181520Z 10005KT 2SM R04/3000VP6000FT RA BR FEW015 BKN030 OVC035 17/17 A2995 RMK AO2 P0004 T01720167
KAVP 181518Z 11005KT 1 3/4SM R04/3000VP6000FT RA BR FEW015 BKN028 OVC033 17/16 A2995 RMK AO2 P0004 T01720161
KAVP 181514Z 09008KT 070V130 2SM R04/3000VP6000FT +RA BR FEW016 BKN030 OVC036 17/16 A2995 RMK AO2 P0001 T01720161
KAVP 181454Z 02011KT 9SM -RA FEW008 BKN025 OVC030 17/17 A2996 RMK AO2 SLP139 P0046 60122 T01720172 53002
KAVP 181452Z 03011KT 8SM -RA FEW006 BKN023 OVC030 17/17 A2995 RMK AO2 P0046
KAVP 181442Z 06010KT 3SM -RA BR FEW003 BKN013 OVC023 17/17 A2995 RMK AO2 P0045 T01670167
KAVP 181431Z 05012G19KT 1 1/4SM R04/4000VP6000FT +RA BR FEW003 SCT007 OVC013 17/17 A2995 RMK AO2 P0035 T01720172
KAVP 181424Z 03008KT 2SM R04/5500VP6000FT +RA BR FEW003 BKN008 OVC015 19/19 A2995 RMK AO2 P0031 T01890189
KAVP 181421Z 04010KT 2SM RA BR FEW003 SCT010 OVC015 19/19 A2995 RMK AO2 P0029 T01890189
KAVP 181417Z 04005KT 1 1/2SM RA BR FEW003 OVC013 19/19 A2995 RMK AO2 P0029 T01890189
KAVP 181414Z 04008KT 1SM R04/4000VP6000FT +RA BR BKN013 OVC021 19/19 A2995 RMK AO2 P0026 T01890189
KAVP 181400Z 07003KT 3/4SM R04/1800VP6000FT +RA BR FEW002 OVC017 19/19 A2995 RMK AO2 P0001 T01890189
KAVP 181354Z 03004KT 2SM RA BR FEW002 BKN017 OVC030 19/19 A2995 RMK AO2 SLP135 P0032 T01890189